sensor_id;sensor_type;location;lat;lon;timestamp;pressure;altitude;pressure_sealevel;temperature;humidity
40155;BME280;25875;48.202;16.334;2024-02-21T00:01:21;100050.34;;;7.15;61.94
40155;BME280;25875;48.202;16.334;2024-02-21T00:03:48;100045.94;;;7.16;61.75
40155;BME280;25875;48.202;16.334;2024-02-21T00:06:15;100032.91;;;7.11;61.46
40155;BME280;25875;48.202;16.334;2024-02-21T00:08:41;99917.38;;;6.38;61.54
40155;BME280;25875;48.202;16.334;2024-02-21T00:11:08;100040.84;;;7.10;61.42
40155;BME280;25875;48.202;16.334;2024-02-21T00:13:34;100041.72;;;7.10;61.17
40155;BME280;25875;48.202;16.334;2024-02-21T00:16:03;99625.97;;;4.67;61.20
40155;BME280;25875;48.202;16.334;2024-02-21T00:18:30;100040.91;;;7.08;61.33
40155;BME280;25875;48.202;16.334;2024-02-21T00:20:56;100034.78;;;7.07;61.34
40155;BME280;25875;48.202;16.334;2024-02-21T00:23:23;100037.44;;;7.06;61.11
40155;BME280;25875;48.202;16.334;2024-02-21T00:25:50;100029.53;;;7.06;61.19
40155;BME280;25875;48.202;16.334;2024-02-21T00:28:16;100041.66;;;7.12;61.32
40155;BME280;25875;48.202;16.334;2024-02-21T00:30:43;99997.47;;;6.92;60.91
40155;BME280;25875;48.202;16.334;2024-02-21T00:33:10;100026.91;;;7.06;60.58
40155;BME280;25875;48.202;16.334;2024-02-21T00:35:37;100034.78;;;7.07;60.86
40155;BME280;25875;48.202;16.334;2024-02-21T00:38:03;100011.91;;;7.08;60.68
40155;BME280;25875;48.202;16.334;2024-02-21T00:40:30;100023.31;;;7.09;60.80
40155;BME280;25875;48.202;16.334;2024-02-21T00:42:57;99963.53;;;6.81;60.63
40155;BME280;25875;48.202;16.334;2024-02-21T00:45:23;100022.41;;;7.10;60.67
40155;BME280;25875;48.202;16.334;2024-02-21T00:47:50;99986.94;;;6.92;60.59
40155;BME280;25875;48.202;16.334;2024-02-21T00:50:18;100013.69;;;7.07;60.52
40155;BME280;25875;48.202;16.334;2024-02-21T00:52:44;100010.19;;;7.07;60.20
40155;BME280;25875;48.202;16.334;2024-02-21T00:55:11;100011.91;;;7.08;60.35
40155;BME280;25875;48.202;16.334;2024-02-21T00:57:38;100004.00;;;7.08;60.47
40155;BME280;25875;48.202;16.334;2024-02-21T01:00:06;100010.09;;;7.10;60.56
40155;BME280;25875;48.202;16.334;2024-02-21T01:02:36;100009.13;;;7.13;60.56
40155;BME280;25875;48.202;16.334;2024-02-21T01:05:03;100002.13;;;7.12;60.01
40155;BME280;25875;48.202;16.334;2024-02-21T01:07:31;100010.94;;;7.11;60.21
40155;BME280;25875;48.202;16.334;2024-02-21T01:09:58;100009.22;;;7.10;60.03
40155;BME280;25875;48.202;16.334;2024-02-21T01:12:25;100002.13;;;7.12;60.24
40155;BME280;25875;48.202;16.334;2024-02-21T01:14:51;99994.22;;;7.12;60.03
40155;BME280;25875;48.202;16.334;2024-02-21T01:17:18;99993.50;;;7.06;59.73
40155;BME280;25875;48.202;16.334;2024-02-21T01:19:46;99983.78;;;7.09;60.00
40155;BME280;25875;48.202;16.334;2024-02-21T01:22:13;99991.63;;;7.10;59.83
40155;BME280;25875;48.202;16.334;2024-02-21T01:24:41;99987.31;;;7.07;59.65
40155;BME280;25875;48.202;16.334;2024-02-21T01:27:08;99937.31;;;6.77;59.57
40155;BME280;25875;48.202;16.334;2024-02-21T01:29:35;99986.50;;;7.05;59.17
40155;BME280;25875;48.202;16.334;2024-02-21T01:32:01;99985.66;;;7.05;59.21
40155;BME280;25875;48.202;16.334;2024-02-21T01:34:28;99880.38;;;6.43;59.35
40155;BME280;25875;48.202;16.334;2024-02-21T01:36:55;99976.00;;;7.04;59.34
40155;BME280;25875;48.202;16.334;2024-02-21T01:39:21;99979.47;;;7.06;59.45
40155;BME280;25875;48.202;16.334;2024-02-21T01:41:49;99971.59;;;7.04;59.63
40155;BME280;25875;48.202;16.334;2024-02-21T01:44:16;99968.00;;;7.07;59.51
40155;BME280;25875;48.202;16.334;2024-02-21T01:46:43;99969.84;;;7.05;59.54
40155;BME280;25875;48.202;16.334;2024-02-21T01:49:10;99962.75;;;7.07;59.59
40155;BME280;25875;48.202;16.334;2024-02-21T01:51:36;99959.25;;;7.06;59.56
40155;BME280;25875;48.202;16.334;2024-02-21T01:54:03;99961.88;;;7.06;59.60
40155;BME280;25875;48.202;16.334;2024-02-21T01:56:30;99960.97;;;7.07;59.57
40155;BME280;25875;48.202;16.334;2024-02-21T01:58:59;99940.16;;;6.98;59.54
40155;BME280;25875;48.202;16.334;2024-02-21T02:01:26;99948.75;;;7.05;59.53
40155;BME280;25875;48.202;16.334;2024-02-21T02:03:53;99945.19;;;7.06;59.57
40155;BME280;25875;48.202;16.334;2024-02-21T02:06:21;99939.94;;;7.06;59.62
40155;BME280;25875;48.202;16.334;2024-02-21T02:08:48;99944.28;;;7.07;59.57
40155;BME280;25875;48.202;16.334;2024-02-21T02:11:15;99928.47;;;7.07;59.61
40155;BME280;25875;48.202;16.334;2024-02-21T02:13:42;99939.06;;;7.05;59.63
40155;BME280;25875;48.202;16.334;2024-02-21T02:16:10;99933.88;;;7.02;59.61
40155;BME280;25875;48.202;16.334;2024-02-21T02:18:36;99937.34;;;7.04;59.42
40155;BME280;25875;48.202;16.334;2024-02-21T02:21:04;99937.47;;;7.00;59.48
40155;BME280;25875;48.202;16.334;2024-02-21T02:23:33;99935.72;;;7.00;59.49
40155;BME280;25875;48.202;16.334;2024-02-21T02:26:00;99858.31;;;6.47;59.41
40155;BME280;25875;48.202;16.334;2024-02-21T02:28:27;99927.81;;;7.00;59.46
40155;BME280;25875;48.202;16.334;2024-02-21T02:30:54;99512.53;;;4.56;59.44
40155;BME280;25875;48.202;16.334;2024-02-21T02:33:20;99926.09;;;6.99;59.45
40155;BME280;25875;48.202;16.334;2024-02-21T02:35:47;99929.69;;;6.97;59.65
40155;BME280;25875;48.202;16.334;2024-02-21T02:38:14;99930.44;;;7.00;59.36
40155;BME280;25875;48.202;16.334;2024-02-21T02:40:42;99921.56;;;7.03;59.45
40155;BME280;25875;48.202;16.334;2024-02-21T02:43:09;99921.72;;;6.98;59.48
40155;BME280;25875;48.202;16.334;2024-02-21T02:45:35;99926.03;;;7.01;59.53
40155;BME280;25875;48.202;16.334;2024-02-21T02:48:02;99926.94;;;7.00;59.38
40155;BME280;25875;48.202;16.334;2024-02-21T02:50:29;99923.44;;;6.99;59.25
40155;BME280;25875;48.202;16.334;2024-02-21T02:52:56;99920.75;;;7.01;59.35
40155;BME280;25875;48.202;16.334;2024-02-21T02:55:23;99918.28;;;6.96;59.29
40155;BME280;25875;48.202;16.334;2024-02-21T02:57:52;99911.19;;;6.98;59.47
40155;BME280;25875;48.202;16.334;2024-02-21T03:00:19;99911.19;;;6.98;59.31
40155;BME280;25875;48.202;16.334;2024-02-21T03:02:48;99881.78;;;6.84;59.40
40155;BME280;25875;48.202;16.334;2024-02-21T03:05:16;99901.50;;;6.99;59.40
40155;BME280;25875;48.202;16.334;2024-02-21T03:07:43;99898.06;;;6.97;59.13
40155;BME280;25875;48.202;16.334;2024-02-21T03:10:10;99903.31;;;6.97;59.23
40155;BME280;25875;48.202;16.334;2024-02-21T03:12:37;99912.91;;;6.99;59.25
40155;BME280;25875;48.202;16.334;2024-02-21T03:15:06;99904.19;;;6.97;59.23
40155;BME280;25875;48.202;16.334;2024-02-21T03:17:33;99904.13;;;6.99;59.22
40155;BME280;25875;48.202;16.334;2024-02-21T03:20:00;99910.31;;;6.98;59.22
40155;BME280;25875;48.202;16.334;2024-02-21T03:22:30;99742.22;;;5.99;58.92
40155;BME280;25875;48.202;16.334;2024-02-21T03:24:57;99906.97;;;6.93;59.24
40155;BME280;25875;48.202;16.334;2024-02-21T03:27:24;99901.69;;;6.93;59.17
40155;BME280;25875;48.202;16.334;2024-02-21T03:29:50;99909.59;;;6.93;59.18
40155;BME280;25875;48.202;16.334;2024-02-21T03:32:18;99785.41;;;6.21;58.96
40155;BME280;25875;48.202;16.334;2024-02-21T03:34:45;99906.09;;;6.92;59.17
40155;BME280;25875;48.202;16.334;2024-02-21T03:37:11;99913.16;;;6.92;59.19
40155;BME280;25875;48.202;16.334;2024-02-21T03:39:39;99906.91;;;6.94;59.34
40155;BME280;25875;48.202;16.334;2024-02-21T03:42:06;99636.38;;;5.33;59.19
40155;BME280;25875;48.202;16.334;2024-02-21T03:44:33;99909.59;;;6.93;59.48
40155;BME280;25875;48.202;16.334;2024-02-21T03:47:00;99908.66;;;6.95;59.76
40155;BME280;25875;48.202;16.334;2024-02-21T03:49:28;99913.09;;;6.93;59.76
40155;BME280;25875;48.202;16.334;2024-02-21T03:51:55;99913.19;;;6.90;59.78
40155;BME280;25875;48.202;16.334;2024-02-21T03:54:21;99915.94;;;6.87;60.10
40155;BME280;25875;48.202;16.334;2024-02-21T03:56:48;99913.34;;;6.86;59.92
40155;BME280;25875;48.202;16.334;2024-02-21T03:59:15;99916.84;;;6.86;60.24
40155;BME280;25875;48.202;16.334;2024-02-21T04:01:41;99914.25;;;6.85;60.30
40155;BME280;25875;48.202;16.334;2024-02-21T04:04:08;99916.97;;;6.82;60.43
40155;BME280;25875;48.202;16.334;2024-02-21T04:06:36;99912.56;;;6.82;60.52
40155;BME280;25875;48.202;16.334;2024-02-21T04:09:03;99910.84;;;6.81;60.62
40155;BME280;25875;48.202;16.334;2024-02-21T04:11:29;99908.97;;;6.85;60.58
40155;BME280;25875;48.202;16.334;2024-02-21T04:13:56;99904.72;;;6.79;60.70
40155;BME280;25875;48.202;16.334;2024-02-21T04:16:23;99908.28;;;6.78;60.78
40155;BME280;25875;48.202;16.334;2024-02-21T04:18:50;99911.75;;;6.80;60.68
40155;BME280;25875;48.202;16.334;2024-02-21T04:21:17;99915.25;;;6.81;60.70
40155;BME280;25875;48.202;16.334;2024-02-21T04:23:45;99909.97;;;6.81;60.75
40155;BME280;25875;48.202;16.334;2024-02-21T04:26:12;99909.94;;;6.82;60.82
40155;BME280;25875;48.202;16.334;2024-02-21T04:28:38;99913.47;;;6.81;60.82
40155;BME280;25875;48.202;16.334;2024-02-21T04:31:05;99906.50;;;6.80;60.80
40155;BME280;25875;48.202;16.334;2024-02-21T04:33:32;99802.47;;;6.08;60.91
40155;BME280;25875;48.202;16.334;2024-02-21T04:35:58;99902.13;;;6.78;60.81
40155;BME280;25875;48.202;16.334;2024-02-21T04:38:26;99895.09;;;6.78;60.89
40155;BME280;25875;48.202;16.334;2024-02-21T04:40:55;99904.72;;;6.79;60.66
40155;BME280;25875;48.202;16.334;2024-02-21T04:43:23;99900.38;;;6.78;60.67
40155;BME280;25875;48.202;16.334;2024-02-21T04:45:50;99898.59;;;6.80;60.54
40155;BME280;25875;48.202;16.334;2024-02-21T04:48:18;99899.59;;;6.74;60.62
40155;BME280;25875;48.202;16.334;2024-02-21T04:50:45;99897.84;;;6.75;60.66
40155;BME280;25875;48.202;16.334;2024-02-21T04:53:12;99709.09;;;5.64;60.76
40155;BME280;25875;48.202;16.334;2024-02-21T04:55:38;99881.44;;;6.65;60.61
40155;BME280;25875;48.202;16.334;2024-02-21T04:58:06;99893.47;;;6.74;60.70
40155;BME280;25875;48.202;16.334;2024-02-21T05:00:33;99461.13;;;4.16;60.31
40155;BME280;25875;48.202;16.334;2024-02-21T05:03:00;99889.06;;;6.74;60.56
40155;BME280;25875;48.202;16.334;2024-02-21T05:05:27;99899.66;;;6.73;60.33
40155;BME280;25875;48.202;16.334;2024-02-21T05:07:53;99892.59;;;6.73;60.44
40155;BME280;25875;48.202;16.334;2024-02-21T05:10:20;99895.25;;;6.73;60.14
40155;BME280;25875;48.202;16.334;2024-02-21T05:12:46;99899.59;;;6.74;60.31
40155;BME280;25875;48.202;16.334;2024-02-21T05:15:15;99898.78;;;6.72;60.33
40155;BME280;25875;48.202;16.334;2024-02-21T05:17:41;99890.84;;;6.74;60.28
40155;BME280;25875;48.202;16.334;2024-02-21T05:20:09;99885.63;;;6.72;60.23
40155;BME280;25875;48.202;16.334;2024-02-21T05:22:36;99882.97;;;6.72;60.13
40155;BME280;25875;48.202;16.334;2024-02-21T05:25:03;99876.41;;;6.87;66.51
40155;BME280;25875;48.202;16.334;2024-02-21T05:27:29;99877.13;;;6.92;62.62
40155;BME280;25875;48.202;16.334;2024-02-21T05:29:56;99870.31;;;6.85;60.87
40155;BME280;25875;48.202;16.334;2024-02-21T05:32:25;99789.50;;;6.30;60.54
40155;BME280;25875;48.202;16.334;2024-02-21T05:34:52;99872.25;;;6.79;60.30
40155;BME280;25875;48.202;16.334;2024-02-21T05:37:18;99880.13;;;6.80;60.10
40155;BME280;25875;48.202;16.334;2024-02-21T05:39:45;99871.31;;;6.81;60.06
40155;BME280;25875;48.202;16.334;2024-02-21T05:42:11;99874.88;;;6.79;59.85
40155;BME280;25875;48.202;16.334;2024-02-21T05:44:38;99867.91;;;6.78;59.55
40155;BME280;25875;48.202;16.334;2024-02-21T05:47:04;99873.16;;;6.78;59.40
40155;BME280;25875;48.202;16.334;2024-02-21T05:49:36;99867.84;;;6.81;59.50
40155;BME280;25875;48.202;16.334;2024-02-21T05:52:03;99864.25;;;6.83;59.33
40155;BME280;25875;48.202;16.334;2024-02-21T05:54:31;99865.22;;;6.79;59.34
40155;BME280;25875;48.202;16.334;2024-02-21T05:56:57;99875.72;;;6.81;59.19
40155;BME280;25875;48.202;16.334;2024-02-21T05:59:24;99869.63;;;6.79;59.19
40155;BME280;25875;48.202;16.334;2024-02-21T06:01:55;99870.47;;;6.81;58.93
40155;BME280;25875;48.202;16.334;2024-02-21T06:04:22;99770.66;;;6.16;58.81
40155;BME280;25875;48.202;16.334;2024-02-21T06:06:50;99870.47;;;6.81;58.81
40155;BME280;25875;48.202;16.334;2024-02-21T06:09:17;99870.47;;;6.81;58.74
40155;BME280;25875;48.202;16.334;2024-02-21T06:11:44;99859.13;;;6.77;58.44
40155;BME280;25875;48.202;16.334;2024-02-21T06:14:11;99859.94;;;6.81;58.70
40155;BME280;25875;48.202;16.334;2024-02-21T06:16:38;99861.72;;;6.79;58.38
40155;BME280;25875;48.202;16.334;2024-02-21T06:19:04;99866.13;;;6.78;58.19
40155;BME280;25875;48.202;16.334;2024-02-21T06:21:31;99858.22;;;6.78;58.11
40155;BME280;25875;48.202;16.334;2024-02-21T06:23:59;99734.84;;;6.10;57.90
40155;BME280;25875;48.202;16.334;2024-02-21T06:26:26;99854.72;;;6.78;57.83
40155;BME280;25875;48.202;16.334;2024-02-21T06:28:52;99863.50;;;6.78;58.00
40155;BME280;25875;48.202;16.334;2024-02-21T06:31:19;99864.34;;;6.80;57.45
40155;BME280;25875;48.202;16.334;2024-02-21T06:33:45;99852.03;;;6.79;57.57
40155;BME280;25875;48.202;16.334;2024-02-21T06:36:12;99854.66;;;6.81;57.47
40155;BME280;25875;48.202;16.334;2024-02-21T06:38:39;99828.00;;;6.62;57.75
40155;BME280;25875;48.202;16.334;2024-02-21T06:41:14;99857.28;;;6.81;57.34
40155;BME280;25875;48.202;16.334;2024-02-21T06:43:41;99857.31;;;6.79;57.36
40155;BME280;25875;48.202;16.334;2024-02-21T06:46:07;99851.19;;;6.79;57.42
40155;BME280;25875;48.202;16.334;2024-02-21T06:48:34;99857.28;;;6.81;57.31
40155;BME280;25875;48.202;16.334;2024-02-21T06:51:01;99854.69;;;6.79;57.35
40155;BME280;25875;48.202;16.334;2024-02-21T06:53:28;99857.25;;;6.82;57.38
40155;BME280;25875;48.202;16.334;2024-02-21T06:55:55;99853.75;;;6.82;57.12
40155;BME280;25875;48.202;16.334;2024-02-21T06:58:23;99848.44;;;6.83;57.31
40155;BME280;25875;48.202;16.334;2024-02-21T07:00:49;99848.47;;;6.82;56.93
40155;BME280;25875;48.202;16.334;2024-02-21T07:03:16;99852.84;;;6.83;56.93
40155;BME280;25875;48.202;16.334;2024-02-21T07:05:43;99856.34;;;6.83;56.89
40155;BME280;25875;48.202;16.334;2024-02-21T07:08:09;99855.31;;;6.87;57.26
40155;BME280;25875;48.202;16.334;2024-02-21T07:10:36;99853.50;;;6.89;57.28
40155;BME280;25875;48.202;16.334;2024-02-21T07:13:03;99830.19;;;6.75;57.01
40155;BME280;25875;48.202;16.334;2024-02-21T07:15:31;99843.81;;;6.90;57.30
40155;BME280;25875;48.202;16.334;2024-02-21T07:17:58;99842.88;;;6.92;57.30
40155;BME280;25875;48.202;16.334;2024-02-21T07:20:25;99849.84;;;6.93;57.05
40155;BME280;25875;48.202;16.334;2024-02-21T07:22:51;99847.31;;;6.90;57.08
40155;BME280;25875;48.202;16.334;2024-02-21T07:25:18;99842.88;;;6.92;56.99
40155;BME280;25875;48.202;16.334;2024-02-21T07:27:45;99848.09;;;6.94;57.00
40155;BME280;25875;48.202;16.334;2024-02-21T07:30:12;99834.97;;;6.92;56.98
40155;BME280;25875;48.202;16.334;2024-02-21T07:32:40;99833.13;;;6.94;56.85
40155;BME280;25875;48.202;16.334;2024-02-21T07:35:08;99831.34;;;6.95;56.93
40155;BME280;25875;48.202;16.334;2024-02-21T07:37:36;99831.31;;;6.96;56.78
40155;BME280;25875;48.202;16.334;2024-02-21T07:40:03;99829.44;;;7.00;56.69
40155;BME280;25875;48.202;16.334;2024-02-21T07:42:30;99828.56;;;6.99;56.65
40155;BME280;25875;48.202;16.334;2024-02-21T07:44:57;99826.81;;;7.00;56.39
40155;BME280;25875;48.202;16.334;2024-02-21T07:47:23;99822.28;;;7.03;56.51
40155;BME280;25875;48.202;16.334;2024-02-21T07:49:51;99816.97;;;7.05;56.11
40155;BME280;25875;48.202;16.334;2024-02-21T07:52:18;99819.41;;;7.11;56.33
40155;BME280;25875;48.202;16.334;2024-02-21T07:54:45;99819.28;;;7.14;56.34
40155;BME280;25875;48.202;16.334;2024-02-21T07:57:11;99818.31;;;7.17;55.99
40155;BME280;25875;48.202;16.334;2024-02-21T07:59:38;99815.47;;;7.23;55.77
40155;BME280;25875;48.202;16.334;2024-02-21T08:02:05;99813.50;;;7.29;55.88
40155;BME280;25875;48.202;16.334;2024-02-21T08:04:32;99813.97;;;7.42;55.45
40155;BME280;25875;48.202;16.334;2024-02-21T08:07:00;99812.66;;;7.54;55.29
40155;BME280;25875;48.202;16.334;2024-02-21T08:09:29;99809.13;;;7.55;54.89
40155;BME280;25875;48.202;16.334;2024-02-21T08:11:56;99802.72;;;7.62;54.86
40155;BME280;25875;48.202;16.334;2024-02-21T08:14:22;99807.00;;;7.64;54.49
40155;BME280;25875;48.202;16.334;2024-02-21T08:16:50;99810.06;;;7.77;54.09
40155;BME280;25875;48.202;16.334;2024-02-21T08:19:16;99801.13;;;8.05;54.45
40155;BME280;25875;48.202;16.334;2024-02-21T08:21:43;99792.44;;;8.24;53.54
40155;BME280;25875;48.202;16.334;2024-02-21T08:24:13;99795.97;;;8.47;52.90
40155;BME280;25875;48.202;16.334;2024-02-21T08:26:40;99794.84;;;8.74;52.08
40155;BME280;25875;48.202;16.334;2024-02-21T08:29:07;99784.31;;;8.94;51.43
40155;BME280;25875;48.202;16.334;2024-02-21T08:31:34;99783.34;;;8.97;51.36
40155;BME280;25875;48.202;16.334;2024-02-21T08:34:01;99782.56;;;9.15;51.20
40155;BME280;25875;48.202;16.334;2024-02-21T08:36:29;99789.63;;;9.15;50.64
40155;BME280;25875;48.202;16.334;2024-02-21T08:38:56;99782.44;;;9.18;50.67
40155;BME280;25875;48.202;16.334;2024-02-21T08:41:24;99776.72;;;9.29;50.29
40155;BME280;25875;48.202;16.334;2024-02-21T08:43:51;99668.28;;;8.68;49.35
40155;BME280;25875;48.202;16.334;2024-02-21T08:46:19;99782.22;;;9.45;49.69
40155;BME280;25875;48.202;16.334;2024-02-21T08:48:46;99773.38;;;9.46;49.64
40155;BME280;25875;48.202;16.334;2024-02-21T08:51:13;99778.25;;;9.55;49.16
40155;BME280;25875;48.202;16.334;2024-02-21T08:53:40;99778.13;;;9.58;48.80
40155;BME280;25875;48.202;16.334;2024-02-21T08:56:07;99771.50;;;9.48;48.88
40155;BME280;25875;48.202;16.334;2024-02-21T08:58:36;99782.47;;;9.59;48.95
40155;BME280;25875;48.202;16.334;2024-02-21T09:01:03;99768.47;;;9.57;48.83
40155;BME280;25875;48.202;16.334;2024-02-21T09:03:31;99770.34;;;9.74;48.82
40155;BME280;25875;48.202;16.334;2024-02-21T09:05:58;99777.03;;;10.01;48.21
40155;BME280;25875;48.202;16.334;2024-02-21T09:08:25;99687.22;;;9.59;48.56
40155;BME280;25875;48.202;16.334;2024-02-21T09:10:51;99758.72;;;10.15;47.74
40155;BME280;25875;48.202;16.334;2024-02-21T09:13:18;99757.06;;;10.32;47.10
40155;BME280;25875;48.202;16.334;2024-02-21T09:15:47;99684.06;;;10.07;47.67
40155;BME280;25875;48.202;16.334;2024-02-21T09:18:14;99747.63;;;10.62;47.28
40155;BME280;25875;48.202;16.334;2024-02-21T09:20:41;99751.53;;;10.72;46.88
40155;BME280;25875;48.202;16.334;2024-02-21T09:23:08;99742.31;;;10.62;46.98
40155;BME280;25875;48.202;16.334;2024-02-21T09:25:35;99750.69;;;10.72;46.94
40155;BME280;25875;48.202;16.334;2024-02-21T09:28:02;99736.00;;;10.65;46.25
40155;BME280;25875;48.202;16.334;2024-02-21T09:30:29;99734.56;;;10.40;46.31
40155;BME280;25875;48.202;16.334;2024-02-21T09:32:57;99717.09;;;10.36;46.62
40155;BME280;25875;48.202;16.334;2024-02-21T09:35:25;99733.59;;;10.60;47.34
40155;BME280;25875;48.202;16.334;2024-02-21T09:37:53;99737.03;;;10.62;46.53
40155;BME280;25875;48.202;16.334;2024-02-21T09:40:20;99737.72;;;10.66;47.17
40155;BME280;25875;48.202;16.334;2024-02-21T09:42:47;99739.13;;;10.55;46.30
40155;BME280;25875;48.202;16.334;2024-02-21T09:45:20;99732.50;;;10.64;46.22
40155;BME280;25875;48.202;16.334;2024-02-21T09:47:59;99737.72;;;10.66;46.36
40155;BME280;25875;48.202;16.334;2024-02-21T09:50:34;99726.91;;;10.70;46.27
40155;BME280;25875;48.202;16.334;2024-02-21T09:53:02;99704.69;;;10.73;45.98
40155;BME280;25875;48.202;16.334;2024-02-21T09:55:33;99721.41;;;10.92;46.07
40155;BME280;25875;48.202;16.334;2024-02-21T09:58:01;99723.19;;;11.09;45.83
40155;BME280;25875;48.202;16.334;2024-02-21T10:00:28;99615.75;;;10.84;45.04
40155;BME280;25875;48.202;16.334;2024-02-21T10:02:55;99703.09;;;11.38;45.44
40155;BME280;25875;48.202;16.334;2024-02-21T10:05:23;99704.09;;;11.52;44.66
40155;BME280;25875;48.202;16.334;2024-02-21T10:07:51;99711.97;;;11.54;44.48
40155;BME280;25875;48.202;16.334;2024-02-21T10:10:18;99712.78;;;11.72;44.42
40155;BME280;25875;48.202;16.334;2024-02-21T10:12:49;99642.91;;;11.22;43.65
40155;BME280;25875;48.202;16.334;2024-02-21T10:15:20;99715.72;;;11.50;43.72
40155;BME280;25875;48.202;16.334;2024-02-21T10:17:49;99707.22;;;11.43;44.13
40155;BME280;25875;48.202;16.334;2024-02-21T10:20:16;99709.09;;;11.41;44.23
40155;BME280;25875;48.202;16.334;2024-02-21T10:22:44;99709.19;;;11.40;44.46
40155;BME280;25875;48.202;16.334;2024-02-21T10:25:11;99708.75;;;11.32;44.49
40155;BME280;25875;48.202;16.334;2024-02-21T10:27:39;99693.91;;;11.28;44.71
40155;BME280;25875;48.202;16.334;2024-02-21T10:30:12;99706.31;;;11.27;44.69
40155;BME280;25875;48.202;16.334;2024-02-21T10:32:49;99699.63;;;11.20;44.68
40155;BME280;25875;48.202;16.334;2024-02-21T10:35:25;99702.50;;;11.33;44.94
40155;BME280;25875;48.202;16.334;2024-02-21T10:37:54;99693.75;;;11.31;44.66
40155;BME280;25875;48.202;16.334;2024-02-21T10:40:23;99698.44;;;11.26;44.72
40155;BME280;25875;48.202;16.334;2024-02-21T10:42:56;99688.00;;;11.22;45.07
40155;BME280;25875;48.202;16.334;2024-02-21T10:45:29;99626.88;;;10.91;44.97
40155;BME280;25875;48.202;16.334;2024-02-21T10:48:05;99679.88;;;11.26;44.68
40155;BME280;25875;48.202;16.334;2024-02-21T10:50:37;99679.16;;;11.39;44.73
40155;BME280;25875;48.202;16.334;2024-02-21T10:53:20;99665.72;;;11.42;44.74
40155;BME280;25875;48.202;16.334;2024-02-21T10:55:58;99674.19;;;11.49;44.87
40155;BME280;25875;48.202;16.334;2024-02-21T10:58:30;99681.56;;;11.44;44.88
40155;BME280;25875;48.202;16.334;2024-02-21T11:00:57;99669.31;;;11.41;44.84
40155;BME280;25875;48.202;16.334;2024-02-21T11:03:24;99673.66;;;11.42;44.65
40155;BME280;25875;48.202;16.334;2024-02-21T11:05:51;99665.50;;;11.30;44.43
40155;BME280;25875;48.202;16.334;2024-02-21T11:08:19;99670.44;;;11.20;44.40
40155;BME280;25875;48.202;16.334;2024-02-21T11:10:46;99650.81;;;11.07;44.58
40155;BME280;25875;48.202;16.334;2024-02-21T11:13:13;99656.66;;;11.13;44.83
40155;BME280;25875;48.202;16.334;2024-02-21T11:15:39;99657.13;;;11.04;44.77
40155;BME280;25875;48.202;16.334;2024-02-21T11:18:06;99654.94;;;10.95;44.72
40155;BME280;25875;48.202;16.334;2024-02-21T11:20:33;99653.06;;;10.97;44.96
40155;BME280;25875;48.202;16.334;2024-02-21T11:23:00;99654.03;;;10.79;44.96
40155;BME280;25875;48.202;16.334;2024-02-21T11:25:29;99650.53;;;10.78;44.76
40155;BME280;25875;48.202;16.334;2024-02-21T11:28:01;99649.94;;;10.72;44.99
40155;BME280;25875;48.202;16.334;2024-02-21T11:30:30;99649.88;;;10.73;45.20
40155;BME280;25875;48.202;16.334;2024-02-21T11:33:01;99642.84;;;10.72;45.12
40155;BME280;25875;48.202;16.334;2024-02-21T11:35:31;99572.94;;;10.23;45.38
40155;BME280;25875;48.202;16.334;2024-02-21T11:38:08;99551.19;;;10.16;45.09
40155;BME280;25875;48.202;16.334;2024-02-21T11:40:38;99639.25;;;10.56;45.04
40155;BME280;25875;48.202;16.334;2024-02-21T11:43:05;99637.84;;;10.49;45.07
40155;BME280;25875;48.202;16.334;2024-02-21T11:45:32;99633.50;;;10.48;45.21
40155;BME280;25875;48.202;16.334;2024-02-21T11:47:59;99616.09;;;10.42;44.95
40155;BME280;25875;48.202;16.334;2024-02-21T11:50:29;99619.53;;;10.44;45.21
40155;BME280;25875;48.202;16.334;2024-02-21T11:52:56;99605.44;;;10.44;45.31
40155;BME280;25875;48.202;16.334;2024-02-21T11:55:22;99594.28;;;10.54;45.22
40155;BME280;25875;48.202;16.334;2024-02-21T11:57:51;99518.09;;;10.08;45.28
40155;BME280;25875;48.202;16.334;2024-02-21T12:00:19;99585.09;;;10.62;44.90
40155;BME280;25875;48.202;16.334;2024-02-21T12:02:46;99582.34;;;10.63;45.15
40155;BME280;25875;48.202;16.334;2024-02-21T12:05:13;99584.94;;;10.65;45.34
40155;BME280;25875;48.202;16.334;2024-02-21T12:07:40;99576.75;;;10.69;45.19
40155;BME280;25875;48.202;16.334;2024-02-21T12:10:08;99570.56;;;10.69;45.13
40155;BME280;25875;48.202;16.334;2024-02-21T12:12:36;99573.38;;;10.66;44.98
40155;BME280;25875;48.202;16.334;2024-02-21T12:15:05;99567.16;;;10.67;45.06
40155;BME280;25875;48.202;16.334;2024-02-21T12:17:33;99569.56;;;10.71;45.00
40155;BME280;25875;48.202;16.334;2024-02-21T12:20:01;99567.78;;;10.72;45.11
40155;BME280;25875;48.202;16.334;2024-02-21T12:22:30;99560.91;;;10.68;44.82
40155;BME280;25875;48.202;16.334;2024-02-21T12:24:57;99553.81;;;10.68;44.47
40155;BME280;25875;48.202;16.334;2024-02-21T12:27:24;99546.81;;;10.67;44.72
40155;BME280;25875;48.202;16.334;2024-02-21T12:29:51;99559.44;;;10.62;44.58
40155;BME280;25875;48.202;16.334;2024-02-21T12:32:20;99548.91;;;10.60;44.22
40155;BME280;25875;48.202;16.334;2024-02-21T12:34:47;99530.94;;;10.50;44.07
40155;BME280;25875;48.202;16.334;2024-02-21T12:37:14;99504.28;;;10.36;44.63
40155;BME280;25875;48.202;16.334;2024-02-21T12:39:41;99554.28;;;10.59;44.54
40155;BME280;25875;48.202;16.334;2024-02-21T12:42:08;99558.66;;;10.60;44.72
40155;BME280;25875;48.202;16.334;2024-02-21T12:44:36;99545.56;;;10.57;44.52
40155;BME280;25875;48.202;16.334;2024-02-21T12:47:03;99534.44;;;10.50;44.31
40155;BME280;25875;48.202;16.334;2024-02-21T12:49:31;99526.16;;;10.56;44.43
40155;BME280;25875;48.202;16.334;2024-02-21T12:51:58;99527.09;;;10.55;44.66
40155;BME280;25875;48.202;16.334;2024-02-21T12:54:25;99516.56;;;10.54;44.58
40155;BME280;25875;48.202;16.334;2024-02-21T12:56:51;99516.50;;;10.55;44.30
40155;BME280;25875;48.202;16.334;2024-02-21T12:59:18;99450.94;;;10.09;43.74